Mud River, Canada
Current Conditions -  °F | °C
As of 1:02 PM on Friday 28 Nov 2014 (Local Time) from CYXS Reporting Station
Clear Clear  
Wind Chill: -21°   Ceiling: Unl
Heat Index:   Visibility: 9mi
Dew Point: -9°   Wind: 16mph
Humidity: 66%   Direction: 360°N
Pressure: 29.88"   Gusts: 23mph
Location:  53.77°N, 123.05°W
Report Text: CYXS 282102Z AUTO 36014G20KT 9SM CLR M18/M23 A2988 RMK SLP185
Loading
Personal Weather Stations






























Interactive Weather Map New forecast layout! Learn more

10-Day Weather Forecast

Advertisements
Track Severe Weather on mobile